Astro Chloe — SVAL7 — position and weather

sailwx.info

Track history (hours):
 
Tides and Currents Weather Stations Pressure Air Temp Water Temp Dewpoint Dewpoint Depression Visibility Wind Speed Wind Dir Waves Ship Positions

Astro Chloe

Last reported at 2018-May-16 17:44 UTC. Time now 2018-May-27 12:02 UTC.
Position N 22°16' E 064°30'.
Warning: this ship's position is 10 days out of date.

Length 333 m; draft 11.2 m.

Type: Tanker. MMSI: 240839000.

Date/timePositionNaut miles runAvg speedWind from/ knotsBaromVisibWave heightAir tempDewpointWater temp
2018-May-16 17:44N 22°16' E 064°30'312.6
2018-May-16 17:30N 22°15' E 064°32'12910.7
2018-May-16 05:22N 20°40' E 066°07'511.0
2018-May-16 04:58N 20°36' E 066°09'611.0
2018-May-16 04:25N 20°31' E 066°13'411.0
2018-May-16 04:00N 20°28' E 066°16'510.5
2018-May-16 03:30N 20°23' E 066°19'2810.9
2018-May-16 00:54N 20°00' E 066°36'511.1
2018-May-16 00:25N 19°56' E 066°40'711.0
2018-May-15 23:49N 19°50' E 066°43'511.0
2018-May-15 23:21N 19°46' E 066°47'7611.0
2018-May-15 16:28N 18°43' E 067°32'511.0
2018-May-15 15:59N 18°39' E 067°36'511.0
2018-May-15 15:30N 18°35' E 067°39'510.9
2018-May-15 15:00N 18°30' E 067°42'611.1
2018-May-15 14:28N 18°25' E 067°45'511.1
2018-May-15 14:00N 18°21' E 067°49'611.1
2018-May-15 13:30N 18°17' E 067°52'611.1
2018-May-15 13:00N 18°12' E 067°55'1511.4
2018-May-15 11:39N 17°59' E 068°05'311.8
2018-May-15 11:24N 17°57' E 068°06'611.8
2018-May-15 10:56N 17°52' E 068°10'9211.7
2018-May-15 03:06N 16°37' E 069°04'112.1
2018-May-15 02:59N 16°36' E 069°05'711.9
2018-May-15 02:22N 16°30' E 069°09'511.8
2018-May-15 01:57N 16°26' E 069°12'511.7
2018-May-15 01:30N 16°21' E 069°16'8411.8
2018-May-14 18:24N 15°13' E 070°05'511.2
2018-May-14 17:55N 15°08' E 070°08'511.0
2018-May-14 17:30N 15°05' E 070°11'510.5
2018-May-14 16:59N 15°00' E 070°14'  
Track history (hours):
 
Tides and Currents Weather Stations Pressure Air Temp Water Temp Dewpoint Dewpoint Depression Visibility Wind Speed Wind Dir Waves Ship Positions

Astro Chloe

Last reported at 2018-May-16 17:44 UTC. Time now 2018-May-27 12:02 UTC.
Position N 22°16' E 064°30'.
Warning: this ship's position is 10 days out of date.

Length 333 m; draft 11.2 m.

Type: Tanker. MMSI: 240839000.

Date/timePositionNaut miles runAvg speedWind from/ knotsBaromVisibWave heightAir tempDewpointWater temp
2018-May-16 17:44N 22°16' E 064°30'312.6
2018-May-16 17:30N 22°15' E 064°32'12910.7
2018-May-16 05:22N 20°40' E 066°07'511.0
2018-May-16 04:58N 20°36' E 066°09'611.0
2018-May-16 04:25N 20°31' E 066°13'411.0
2018-May-16 04:00N 20°28' E 066°16'510.5
2018-May-16 03:30N 20°23' E 066°19'2810.9
2018-May-16 00:54N 20°00' E 066°36'511.1
2018-May-16 00:25N 19°56' E 066°40'711.0
2018-May-15 23:49N 19°50' E 066°43'511.0
2018-May-15 23:21N 19°46' E 066°47'7611.0
2018-May-15 16:28N 18°43' E 067°32'511.0
2018-May-15 15:59N 18°39' E 067°36'511.0
2018-May-15 15:30N 18°35' E 067°39'510.9
2018-May-15 15:00N 18°30' E 067°42'611.1
2018-May-15 14:28N 18°25' E 067°45'511.1
2018-May-15 14:00N 18°21' E 067°49'611.1
2018-May-15 13:30N 18°17' E 067°52'611.1
2018-May-15 13:00N 18°12' E 067°55'1511.4
2018-May-15 11:39N 17°59' E 068°05'311.8
2018-May-15 11:24N 17°57' E 068°06'611.8
2018-May-15 10:56N 17°52' E 068°10'9211.7
2018-May-15 03:06N 16°37' E 069°04'112.1
2018-May-15 02:59N 16°36' E 069°05'711.9
2018-May-15 02:22N 16°30' E 069°09'511.8
2018-May-15 01:57N 16°26' E 069°12'511.7
2018-May-15 01:30N 16°21' E 069°16'8411.8
2018-May-14 18:24N 15°13' E 070°05'511.2
2018-May-14 17:55N 15°08' E 070°08'511.0
2018-May-14 17:30N 15°05' E 070°11'510.5
2018-May-14 16:59N 15°00' E 070°14'  

Dump ship's entire track history